Time;durP1;ratioP1;P1;durP2;ratioP2;P2;SDS_P1;SDS_P2;PMS_P1;PMS_P2;Temp;Humidity;BMP_temperature;BMP_pressure;BME280_temperature;BME280_humidity;BME280_pressure;Samples;Min_cycle;Max_cycle;Signal;HPM_P1;HPM_P2
2022/10/13 00:00:49;;;;;;;;;;;;;;;15.30;77.77;100808.16;5019726;28;1938;-58
2022/10/13 00:03:14;;;;;;;;;;;;;;;15.94;77.99;100906.53;5022160;28;1816;-58
2022/10/13 00:05:41;;;;;;;;;;;;;;;15.94;77.84;100909.28;5025497;28;1633;-59
2022/10/13 00:08:06;;;;;;;;;;;;;;;15.93;77.74;100910.41;5012286;28;2277;-58
2022/10/13 00:10:34;;;;;;;;;;;;;;;15.93;78.04;100910.41;5011419;28;1795;-58
2022/10/13 00:12:59;;;;;;;;;;;;;;;15.92;77.60;100910.72;5025565;28;1759;-59
2022/10/13 00:15:24;;;;;;;;;;;;;;;15.92;77.67;100911.53;5024831;28;1858;-60
2022/10/13 00:17:50;;;;;;;;;;;;;;;15.91;77.71;100904.38;5012299;28;1865;-59
2022/10/13 00:20:15;;;;;;;;;;;;;;;15.89;77.65;100903.88;5015103;28;1981;-58
2022/10/13 00:22:40;;;;;;;;;;;;;;;15.91;77.91;100909.13;5021093;28;1620;-58
2022/10/13 00:25:05;;;;;;;;;;;;;;;15.90;77.84;100902.78;5012264;28;2523;-59
2022/10/13 00:27:31;;;;;;;;;;;;;;;15.88;78.03;100908.59;5015244;28;1632;-57
2022/10/13 00:29:56;;;;;;;;;;;;;;;15.88;78.03;100916.06;5024422;28;1875;-59
2022/10/13 00:32:21;;;;;;;;;;;;;;;15.87;77.95;100915.22;5020812;28;1633;-58
2022/10/13 00:34:46;;;;;;;;;;;;;;;15.88;77.96;100911.34;5021998;28;1573;-58
2022/10/13 00:37:11;;;;;;;;;;;;;;;15.89;78.02;100913.00;5022556;28;1815;-60
2022/10/13 00:39:37;;;;;;;;;;;;;;;15.90;78.23;100916.56;5019147;28;1965;-59
2022/10/13 00:42:03;;;;;;;;;;;;;;;15.89;77.93;100907.47;5012561;28;1733;-59
2022/10/13 00:44:47;;;;;;;;;;;;;;;15.89;78.24;100898.38;5021277;28;1778;-58
2022/10/13 00:47:12;;;;;;;;;;;;;;;15.86;78.46;100908.06;5021735;28;1700;-59
2022/10/13 00:49:37;;;;;;;;;;;;;;;15.86;78.40;100908.06;5013968;28;1857;-57
2022/10/13 00:52:03;;;;;;;;;;;;;;;15.85;78.38;100905.63;5015705;28;1823;-58
2022/10/13 00:54:28;;;;;;;;;;;;;;;15.85;78.25;100903.66;5021192;28;1812;-60
2022/10/13 00:56:54;;;;;;;;;;;;;;;15.84;78.10;100909.50;5016452;28;2033;-59
2022/10/13 00:59:22;;;;;;;;;;;;;;;15.84;78.33;100906.72;5009623;28;2341;-58
2022/10/13 01:01:47;;;;;;;;;;;;;;;15.85;77.97;100903.66;5009999;28;1960;-58
2022/10/13 01:04:13;;;;;;;;;;;;;;;15.85;78.35;100908.38;5020164;28;1858;-58
2022/10/13 01:06:39;;;;;;;;;;;;;;;15.84;78.46;100909.50;5021287;28;1668;-60
2022/10/13 01:09:04;;;;;;;;;;;;;;;15.84;78.54;100912.25;5017183;28;1866;-57
2022/10/13 01:11:40;;;;;;;;;;;;;;;15.83;78.44;100916.13;5018356;28;1316;-58
2022/10/13 01:14:08;;;;;;;;;;;;;;;15.81;78.53;100907.38;5025774;28;2326;-59
2022/10/13 01:16:39;;;;;;;;;;;;;;;15.80;78.71;100908.47;5014790;28;1646;-60
2022/10/13 01:19:07;;;;;;;;;;;;;;;15.78;78.76;100910.72;5018921;28;2037;-60
2022/10/13 01:21:42;;;;;;;;;;;;;;;15.76;78.73;100897.22;5018822;28;1643;-58
2022/10/13 01:24:27;;;;;;;;;;;;;;;15.76;78.35;100902.75;5016420;28;1738;-59
2022/10/13 01:26:55;;;;;;;;;;;;;;;15.76;78.71;100901.91;5008514;28;1639;-57
2022/10/13 01:29:25;;;;;;;;;;;;;;;15.75;78.62;100897.53;5018317;28;1929;-59
2022/10/13 01:32:10;;;;;;;;;;;;;;;15.74;78.54;100899.47;5004164;28;1802;-60
2022/10/13 01:34:38;;;;;;;;;;;;;;;15.74;78.67;100901.41;5019877;28;1710;-58
2022/10/13 01:37:22;;;;;;;;;;;;;;;15.74;78.46;100895.88;5024113;28;1606;-59
2022/10/13 01:39:50;;;;;;;;;;;;;;;15.75;78.52;100895.59;5020541;28;1969;-59
2022/10/13 01:42:22;;;;;;;;;;;;;;;15.76;78.65;100896.41;5008497;28;1953;-58
2022/10/13 01:44:50;;;;;;;;;;;;;;;15.77;78.72;100900.81;5015915;28;2012;-60
2022/10/13 01:47:16;;;;;;;;;;;;;;;15.76;78.87;100891.69;5023568;28;1719;-59
2022/10/13 01:49:42;;;;;;;;;;;;;;;15.77;78.62;100892.53;5026205;28;1623;-59
2022/10/13 01:52:12;;;;;;;;;;;;;;;15.76;78.94;100885.38;5028004;28;1771;-60
2022/10/13 01:54:37;;;;;;;;;;;;;;;15.74;78.81;100885.66;5017967;28;1790;-58
2022/10/13 01:57:02;;;;;;;;;;;;;;;15.73;78.91;100886.00;5015027;28;1941;-59
2022/10/13 01:59:29;;;;;;;;;;;;;;;15.70;78.94;100879.13;5028558;28;1924;-58
2022/10/13 02:01:54;;;;;;;;;;;;;;;15.71;78.61;100866.16;5020316;28;1843;-59
2022/10/13 02:04:25;;;;;;;;;;;;;;;15.70;78.71;100870.03;5023252;28;1901;-58
2022/10/13 02:07:03;;;;;;;;;;;;;;;15.69;78.86;100873.91;5011051;28;1888;-58
2022/10/13 02:09:42;;;;;;;;;;;;;;;15.69;78.92;100863.69;5016288;28;1617;-59
2022/10/13 02:12:12;;;;;;;;;;;;;;;15.69;78.90;100860.13;5026083;28;1831;-58
2022/10/13 02:14:41;;;;;;;;;;;;;;;15.67;78.94;100863.16;5025284;28;1622;-58
2022/10/13 02:17:06;;;;;;;;;;;;;;;15.67;78.81;100854.06;5022918;28;1848;-60
2022/10/13 02:19:33;;;;;;;;;;;;;;;15.65;78.80;100851.63;5020536;28;2038;-59
2022/10/13 02:21:58;;;;;;;;;;;;;;;15.65;78.94;100854.38;5017894;28;2229;-60
2022/10/13 02:24:23;;;;;;;;;;;;;;;15.65;79.11;100848.06;5013034;28;1729;-59
2022/10/13 02:26:49;;;;;;;;;;;;;;;15.64;78.99;100851.94;5024288;28;1778;-60
2022/10/13 02:29:15;;;;;;;;;;;;;;;15.65;78.86;100853.59;5024223;28;1589;-60
2022/10/13 02:31:41;;;;;;;;;;;;;;;15.63;79.15;100853.06;5025490;28;1812;-60
2022/10/13 02:34:06;;;;;;;;;;;;;;;15.62;79.13;100848.66;5017943;28;1894;-61
2022/10/13 02:36:32;;;;;;;;;;;;;;;15.61;78.81;100847.03;5012229;28;1959;-61
2022/10/13 02:38:57;;;;;;;;;;;;;;;15.62;79.01;100845.91;5014810;28;1779;-60
2022/10/13 02:41:22;;;;;;;;;;;;;;;15.60;79.17;100837.09;5031296;28;1963;-60
2022/10/13 02:43:48;;;;;;;;;;;;;;;15.60;79.30;100832.41;5019300;28;1952;-60
2022/10/13 02:46:13;;;;;;;;;;;;;;;15.61;79.39;100833.22;5026618;28;1658;-60
2022/10/13 02:48:39;;;;;;;;;;;;;;;15.60;79.28;100834.34;5025201;28;1882;-60
2022/10/13 02:51:04;;;;;;;;;;;;;;;15.58;79.29;100823.63;5014120;28;2588;-60
2022/10/13 02:53:29;;;;;;;;;;;;;;;15.59;79.40;100829.94;5019777;28;1696;-61
2022/10/13 02:55:54;;;;;;;;;;;;;;;15.58;79.00;100825.56;5011503;28;2067;-61
2022/10/13 02:58:20;;;;;;;;;;;;;;;15.59;79.02;100832.72;5021206;28;2417;-61
2022/10/13 03:00:45;;;;;;;;;;;;;;;15.61;78.96;100827.72;5021744;28;1902;-61
2022/10/13 03:03:10;;;;;;;;;;;;;;;15.58;78.96;100818.09;5022746;28;1892;-60
2022/10/13 03:05:35;;;;;;;;;;;;;;;15.58;79.48;100820.03;5015296;28;1673;-60
2022/10/13 03:08:01;;;;;;;;;;;;;;;15.55;79.35;100824.25;5009540;28;1944;-60
2022/10/13 03:10:26;;;;;;;;;;;;;;;15.55;79.55;100827.00;5014089;28;1905;-60
2022/10/13 03:12:53;;;;;;;;;;;;;;;15.55;78.92;100827.00;5023198;28;1875;-60
2022/10/13 03:15:19;;;;;;;;;;;;;;;15.54;79.26;100825.38;5024943;28;1696;-61
2022/10/13 03:17:44;;;;;;;;;;;;;;;15.52;79.45;100824.81;5024556;28;1923;-60
2022/10/13 03:20:09;;;;;;;;;;;;;;;15.52;79.20;100827.56;5014601;28;1973;-60
2022/10/13 03:22:34;;;;;;;;;;;;;;;15.50;79.69;100829.81;5019873;28;1662;-60
2022/10/13 03:24:59;;;;;;;;;;;;;;;15.49;79.44;100823.47;5022801;28;1745;-61
2022/10/13 03:27:24;;;;;;;;;;;;;;;15.48;79.25;100823.81;5015522;28;2011;-60
2022/10/13 03:29:50;;;;;;;;;;;;;;;15.47;79.70;100822.97;5029818;28;1761;-59
2022/10/13 03:32:15;;;;;;;;;;;;;;;15.47;79.21;100825.75;5020478;28;2210;-60
2022/10/13 03:34:40;;;;;;;;;;;;;;;15.47;79.54;100822.16;5016618;28;1711;-60
2022/10/13 03:37:06;;;;;;;;;;;;;;;15.47;79.58;100827.69;5025603;28;1851;-60
2022/10/13 03:39:31;;;;;;;;;;;;;;;15.46;79.71;100826.88;5024114;28;1959;-60
2022/10/13 03:41:56;;;;;;;;;;;;;;;15.47;79.57;100811.94;5010101;28;2153;-59
2022/10/13 03:44:21;;;;;;;;;;;;;;;15.46;79.41;100809.50;5013904;28;1912;-60
2022/10/13 03:46:46;;;;;;;;;;;;;;;15.46;79.29;100817.75;5023833;28;1972;-60
2022/10/13 03:49:11;;;;;;;;;;;;;;;15.44;79.54;100823.59;5025324;28;1949;-59
2022/10/13 03:51:37;;;;;;;;;;;;;;;15.44;79.78;100820.81;5024662;28;1774;-60
2022/10/13 03:54:02;;;;;;;;;;;;;;;15.41;79.65;100818.66;5031939;28;1779;-60
2022/10/13 03:56:27;;;;;;;;;;;;;;;15.41;79.39;100826.13;5011529;28;2508;-61
2022/10/13 03:58:54;;;;;;;;;;;;;;;15.42;79.47;100825.00;5024069;28;1858;-60
2022/10/13 04:01:21;;;;;;;;;;;;;;;15.40;79.49;100824.47;5018164;28;1894;-60
2022/10/13 04:03:46;;;;;;;;;;;;;;;15.40;79.58;100827.25;5024925;28;1627;-60
2022/10/13 04:06:11;;;;;;;;;;;;;;;15.38;79.13;100824.81;5023724;28;2031;-60
2022/10/13 04:08:36;;;;;;;;;;;;;;;15.38;79.54;100819.28;5020310;28;2080;-61
2022/10/13 04:11:03;;;;;;;;;;;;;;;15.37;79.67;100825.09;5013643;28;1604;-60
2022/10/13 04:13:28;;;;;;;;;;;;;;;15.37;79.56;100828.69;5017304;28;1606;-61
2022/10/13 04:15:53;;;;;;;;;;;;;;;15.36;79.78;100820.72;5025900;28;1540;-61
2022/10/13 04:18:18;;;;;;;;;;;;;;;15.36;79.27;100821.53;5022268;28;2237;-60
2022/10/13 04:20:44;;;;;;;;;;;;;;;15.36;79.37;100826.22;5020423;28;2979;-60
2022/10/13 04:23:09;;;;;;;;;;;;;;;15.36;79.52;100821.53;5015849;28;1971;-61
2022/10/13 04:25:35;;;;;;;;;;;;;;;15.37;79.65;100827.88;5012515;28;1887;-61
2022/10/13 04:28:00;;;;;;;;;;;;;;;15.36;79.83;100827.06;5024173;28;1886;-61
2022/10/13 04:30:26;;;;;;;;;;;;;;;15.36;80.01;100816.00;5021544;28;1720;-60
2022/10/13 04:32:51;;;;;;;;;;;;;;;15.36;79.76;100818.78;5027824;28;1970;-60
2022/10/13 04:35:16;;;;;;;;;;;;;;;15.36;79.14;100820.72;5020819;28;1772;-60
2022/10/13 04:37:41;;;;;;;;;;;;;;;15.35;79.48;100819.06;5015597;28;2132;-60
2022/10/13 04:40:06;;;;;;;;;;;;;;;15.37;79.63;100814.91;5018306;28;1999;-60
2022/10/13 04:42:32;;;;;;;;;;;;;;;15.38;79.61;100810.19;5023892;28;1690;-60
2022/10/13 04:44:57;;;;;;;;;;;;;;;15.37;79.63;100808.56;5021414;28;1846;-60
2022/10/13 04:47:22;;;;;;;;;;;;;;;15.36;79.74;100801.41;5023377;28;1800;-60
2022/10/13 04:49:48;;;;;;;;;;;;;;;15.37;80.09;100806.63;5021370;28;1758;-60
2022/10/13 04:52:13;;;;;;;;;;;;;;;15.36;79.88;100806.91;5011515;28;2490;-61
2022/10/13 04:54:38;;;;;;;;;;;;;;;15.35;79.64;100803.34;5016583;28;1726;-59
2022/10/13 04:57:03;;;;;;;;;;;;;;;15.33;79.73;100802.81;5023750;28;1746;-60
2022/10/13 04:59:28;;;;;;;;;;;;;;;15.33;79.86;100794.53;5017821;28;1973;-60
2022/10/13 05:01:53;;;;;;;;;;;;;;;15.34;80.18;100792.59;5022773;28;1995;-61
2022/10/13 05:04:18;;;;;;;;;;;;;;;15.33;80.51;100794.53;5022934;28;2060;-60
2022/10/13 05:06:43;;;;;;;;;;;;;;;15.33;79.80;100794.53;5010362;28;1868;-61
2022/10/13 05:09:14;;;;;;;;;;;;;;;15.32;79.72;100787.38;5021162;28;1769;-59
2022/10/13 05:11:39;;;;;;;;;;;;;;;15.33;80.43;100788.22;5023283;28;2019;-61
2022/10/13 05:14:04;;;;;;;;;;;;;;;15.31;79.62;100774.72;5033182;28;833;-60
2022/10/13 05:16:30;;;;;;;;;;;;;;;15.33;79.98;100780.75;5012880;28;1870;-61
2022/10/13 05:18:55;;;;;;;;;;;;;;;15.32;79.87;100778.31;5019323;28;1659;-60
2022/10/13 05:21:22;;;;;;;;;;;;;;;15.33;79.58;100783.50;5008073;28;1886;-61
2022/10/13 05:23:47;;;;;;;;;;;;;;;15.32;80.22;100781.06;5021269;28;1751;-60
2022/10/13 05:26:14;;;;;;;;;;;;;;;15.32;79.88;100775.53;5011110;28;1751;-61
2022/10/13 05:28:39;;;;;;;;;;;;;;;15.31;80.37;100779.44;5013071;28;1881;-60
2022/10/13 05:31:11;;;;;;;;;;;;;;;15.31;79.82;100782.22;5022548;28;1746;-59
2022/10/13 05:33:37;;;;;;;;;;;;;;;15.30;80.38;100784.16;5012661;28;2194;-61
2022/10/13 05:36:03;;;;;;;;;;;;;;;15.30;79.95;100786.91;5014188;28;1892;-60
2022/10/13 05:38:28;;;;;;;;;;;;;;;15.30;80.07;100781.38;5020930;28;1886;-61
2022/10/13 05:40:53;;;;;;;;;;;;;;;15.30;79.97;100778.63;5021935;28;1898;-61
2022/10/13 05:43:18;;;;;;;;;;;;;;;15.30;80.13;100777.81;5023953;28;1767;-61
2022/10/13 05:45:44;;;;;;;;;;;;;;;15.30;80.36;100778.63;5020581;28;1867;-58
2022/10/13 05:48:09;;;;;;;;;;;;;;;15.30;79.88;100778.63;5010049;28;2108;-60
2022/10/13 05:50:34;;;;;;;;;;;;;;;15.28;79.96;100778.09;5012920;28;1692;-60
2022/10/13 05:52:59;;;;;;;;;;;;;;;15.27;80.42;100781.97;5021124;28;1611;-60
2022/10/13 05:55:24;;;;;;;;;;;;;;;15.27;80.23;100784.75;5019290;28;1733;-60
2022/10/13 05:57:50;;;;;;;;;;;;;;;15.27;80.11;100778.41;5017099;28;1751;-59
2022/10/13 06:00:17;;;;;;;;;;;;;;;15.24;80.63;100760.53;5024499;28;1894;-59
2022/10/13 06:02:46;;;;;;;;;;;;;;;15.24;80.42;100763.28;5010736;28;1811;-60
2022/10/13 06:05:13;;;;;;;;;;;;;;;15.24;80.12;100755.00;5013713;28;1635;-61
2022/10/13 06:07:38;;;;;;;;;;;;;;;15.23;80.00;100763.59;5016134;28;1808;-61
2022/10/13 06:10:04;;;;;;;;;;;;;;;15.23;80.15;100761.63;5019936;28;1728;-60
2022/10/13 06:12:29;;;;;;;;;;;;;;;15.25;80.04;100766.84;5023106;28;1732;-60
2022/10/13 06:14:54;;;;;;;;;;;;;;;15.24;80.80;100760.53;5018643;28;2095;-61
2022/10/13 06:17:19;;;;;;;;;;;;;;;15.23;80.58;100767.16;5010933;28;1852;-60
2022/10/13 06:19:44;;;;;;;;;;;;;;;15.24;80.54;100768.78;5011377;28;2185;-60
2022/10/13 06:22:10;;;;;;;;;;;;;;;15.27;80.38;100773.72;5008402;28;2066;-61
2022/10/13 06:24:35;;;;;;;;;;;;;;;15.30;80.43;100761.25;5012950;28;1591;-60
2022/10/13 06:27:00;;;;;;;;;;;;;;;15.32;80.64;100764.50;5003866;28;1780;-60
2022/10/13 06:29:25;;;;;;;;;;;;;;;15.33;80.21;100750.41;4999006;28;2474;-60
2022/10/13 06:31:50;;;;;;;;;;;;;;;15.47;80.14;100751.25;5009339;28;2015;-59
2022/10/13 06:34:16;;;;;;;;;;;;;;;14.31;75.59;100745.88;5011983;28;2295;-59
2022/10/13 06:36:41;;;;;;;;;;;;;;;13.34;79.95;100750.25;5010560;28;2013;-60
2022/10/13 06:39:06;;;;;;;;;;;;;;;14.12;79.13;100753.31;5020467;28;1851;-61
2022/10/13 06:41:32;;;;;;;;;;;;;;;14.64;78.11;100762.44;5016030;28;2488;-60
2022/10/13 06:43:57;;;;;;;;;;;;;;;15.00;78.39;100757.13;5020535;28;1680;-60
2022/10/13 06:46:22;;;;;;;;;;;;;;;15.30;77.60;100766.78;5030546;28;1743;-61
2022/10/13 06:48:48;;;;;;;;;;;;;;;15.56;77.02;100767.94;5027621;28;1811;-58
2022/10/13 06:51:13;;;;;;;;;;;;;;;15.75;76.33;100763.09;5017244;28;2695;-59
2022/10/13 06:53:38;;;;;;;;;;;;;;;15.92;76.35;100758.88;5016027;28;1649;-60
2022/10/13 06:56:05;;;;;;;;;;;;;;;16.03;76.06;100766.63;5014991;28;1648;-60
2022/10/13 06:58:30;;;;;;;;;;;;;;;16.13;75.86;100774.69;5024734;28;1659;-60
2022/10/13 07:00:55;;;;;;;;;;;;;;;16.20;76.11;100774.25;5033444;28;1906;-59
2022/10/13 07:03:21;;;;;;;;;;;;;;;16.26;75.65;100776.59;5022794;28;1853;-60
2022/10/13 07:05:46;;;;;;;;;;;;;;;16.32;75.80;100776.50;5020123;28;1711;-60
2022/10/13 07:08:11;;;;;;;;;;;;;;;16.37;75.89;100779.13;5014787;28;1771;-60
2022/10/13 07:10:37;;;;;;;;;;;;;;;16.24;74.36;100773.34;5017248;28;1714;-60
2022/10/13 07:13:02;;;;;;;;;;;;;;;16.27;75.54;100782.94;5021382;28;1714;-60
2022/10/13 07:15:27;;;;;;;;;;;;;;;16.39;75.79;100769.41;5017553;28;1732;-60
2022/10/13 07:17:53;;;;;;;;;;;;;;;16.49;75.76;100768.34;5013731;28;2104;-61
2022/10/13 07:20:20;;;;;;;;;;;;;;;16.60;75.75;100766.94;5010343;28;2066;-61
2022/10/13 07:22:45;;;;;;;;;;;;;;;16.69;75.39;100778.91;5018551;28;1555;-60
2022/10/13 07:25:10;;;;;;;;;;;;;;;16.74;74.63;100770.50;5015289;28;1370;-60
2022/10/13 07:27:37;;;;;;;;;;;;;;;16.79;74.83;100758.50;5014934;28;1158;-60
2022/10/13 07:30:02;;;;;;;;;;;;;;;16.84;74.67;100773.00;5015531;28;837;-60
2022/10/13 07:32:27;;;;;;;;;;;;;;;16.86;75.21;100780.97;5022433;28;2287;-61
2022/10/13 07:34:53;;;;;;;;;;;;;;;16.88;75.18;100770.41;5021914;28;2354;-60
2022/10/13 07:37:18;;;;;;;;;;;;;;;16.89;74.18;100761.00;5014258;28;1704;-59
2022/10/13 07:39:43;;;;;;;;;;;;;;;16.96;75.06;100756.66;5007515;28;2143;-61
2022/10/13 07:42:08;;;;;;;;;;;;;;;17.09;74.62;100759.66;5009186;28;1591;-60
2022/10/13 07:44:33;;;;;;;;;;;;;;;17.18;74.92;100752.22;5008313;28;2282;-60
2022/10/13 07:46:58;;;;;;;;;;;;;;;17.28;74.28;100765.75;5014441;28;1748;-60
2022/10/13 07:49:23;;;;;;;;;;;;;;;17.39;73.43;100761.56;5017473;28;1866;-61
2022/10/13 07:51:49;;;;;;;;;;;;;;;17.51;74.41;100750.72;5016620;28;1874;-61
2022/10/13 07:54:14;;;;;;;;;;;;;;;17.59;73.44;100760.19;5022393;28;2004;-61
2022/10/13 07:56:39;;;;;;;;;;;;;;;17.65;73.75;100751.44;5024234;28;1951;-60
2022/10/13 07:59:04;;;;;;;;;;;;;;;17.73;72.99;100738.75;5017174;28;2009;-61
2022/10/13 08:01:29;;;;;;;;;;;;;;;17.76;73.06;100741.69;5025449;28;1925;-60
2022/10/13 08:03:55;;;;;;;;;;;;;;;17.80;74.10;100746.56;5011861;28;1772;-60
2022/10/13 08:06:21;;;;;;;;;;;;;;;17.82;73.96;100747.06;5013722;28;1605;-62
2022/10/13 08:08:46;;;;;;;;;;;;;;;17.81;73.30;100740.72;5025445;28;1731;-61
2022/10/13 08:11:12;;;;;;;;;;;;;;;17.84;73.23;100744.81;5029174;28;1734;-61
2022/10/13 08:13:37;;;;;;;;;;;;;;;17.83;73.13;100745.94;5024523;28;1580;-60
2022/10/13 08:16:03;;;;;;;;;;;;;;;17.82;73.93;100733.22;5025369;28;1857;-61
2022/10/13 08:18:28;;;;;;;;;;;;;;;17.81;74.28;100731.59;5017226;28;1842;-60
2022/10/13 08:20:53;;;;;;;;;;;;;;;17.82;74.16;100741.53;5011513;28;1961;-59
2022/10/13 08:23:18;;;;;;;;;;;;;;;17.78;73.36;100739.41;5009084;28;2029;-61
2022/10/13 08:25:44;;;;;;;;;;;;;;;17.78;74.37;100744.94;5022849;28;1696;-59
2022/10/13 08:28:22;;;;;;;;;;;;;;;17.78;74.17;100733.84;5020688;28;1846;-61
2022/10/13 08:30:47;;;;;;;;;;;;;;;17.77;75.03;100706.53;5021980;28;1626;-60
2022/10/13 08:33:13;;;;;;;;;;;;;;;17.74;74.00;100727.34;5022973;28;1822;-56
2022/10/13 08:35:38;;;;;;;;;;;;;;;17.71;73.94;100743.78;5010866;28;2898;-57
2022/10/13 08:38:03;;;;;;;;;;;;;;;17.67;74.08;100735.31;5009437;28;2122;-61
2022/10/13 08:40:29;;;;;;;;;;;;;;;17.66;74.17;100727.34;5020892;28;1890;-58
2022/10/13 08:42:54;;;;;;;;;;;;;;;17.09;74.16;100655.38;5012899;28;1914;-60
2022/10/13 08:45:22;;;;;;;;;;;;;;;17.66;74.60;100763.31;5016978;28;2093;-57
2022/10/13 08:47:58;;;;;;;;;;;;;;;17.63;75.31;100766.72;5022729;28;1880;-57
2022/10/13 08:50:25;;;;;;;;;;;;;;;17.59;74.61;100771.25;5020309;28;2014;-59
2022/10/13 08:52:56;;;;;;;;;;;;;;;17.58;74.39;100750.25;5009205;28;1999;-59
2022/10/13 08:55:32;;;;;;;;;;;;;;;17.57;75.61;100751.38;5013492;28;1400;-58
2022/10/13 08:57:58;;;;;;;;;;;;;;;17.57;76.15;100734.78;5003248;28;1280;-58
2022/10/13 09:00:23;;;;;;;;;;;;;;;17.56;74.56;100727.59;5018161;28;1938;-58
2022/10/13 09:02:49;;;;;;;;;;;;;;;17.53;74.79;100726.28;5019708;28;1580;-59
2022/10/13 09:05:33;;;;;;;;;;;;;;;17.55;74.35;100743.38;5011332;28;1818;-59
2022/10/13 09:07:58;;;;;;;;;;;;;;;17.60;75.68;100728.59;5010560;28;2087;-59
2022/10/13 09:10:24;;;;;;;;;;;;;;;17.63;75.91;100737.09;5021634;28;1542;-59
2022/10/13 09:12:50;;;;;;;;;;;;;;;17.68;76.23;100736.97;5022294;28;1676;-58
2022/10/13 09:15:16;;;;;;;;;;;;;;;17.72;75.45;100737.94;5030109;28;1485;-57
2022/10/13 09:17:41;;;;;;;;;;;;;;;17.66;75.12;100728.16;5015882;28;2072;-58
2022/10/13 09:20:20;;;;;;;;;;;;;;;17.71;75.00;100728.00;5005729;28;2128;-58
2022/10/13 09:23:06;;;;;;;;;;;;;;;17.80;75.01;100732.72;5008773;28;2330;-62
2022/10/13 09:25:38;;;;;;;;;;;;;;;17.84;73.85;100730.97;5019182;28;1979;-58
2022/10/13 09:28:08;;;;;;;;;;;;;;;17.92;75.05;100735.69;5013518;28;1854;-57
2022/10/13 09:30:37;;;;;;;;;;;;;;;17.98;74.69;100728.84;5012991;28;2463;-58
2022/10/13 09:33:12;;;;;;;;;;;;;;;18.02;74.39;100725.13;5008918;28;1867;-58
2022/10/13 09:35:37;;;;;;;;;;;;;;;18.04;74.27;100728.34;5013743;28;1875;-59
2022/10/13 09:38:21;;;;;;;;;;;;;;;18.07;74.77;100716.63;5020400;28;1922;-59
2022/10/13 09:41:02;;;;;;;;;;;;;;;18.11;73.89;100727.91;5014342;28;1953;-57
2022/10/13 09:43:30;;;;;;;;;;;;;;;18.14;73.74;100721.69;5024919;28;1746;-59
2022/10/13 09:45:55;;;;;;;;;;;;;;;17.57;73.51;100633.16;5013932;28;1966;-59
2022/10/13 09:48:25;;;;;;;;;;;;;;;18.13;73.74;100722.81;5012058;28;1785;-56
2022/10/13 09:50:52;;;;;;;;;;;;;;;18.13;74.39;100725.59;5011559;28;1781;-58
2022/10/13 09:53:35;;;;;;;;;;;;;;;18.12;74.48;100715.66;5019130;28;2226;-57
2022/10/13 09:56:15;;;;;;;;;;;;;;;18.10;74.49;100716.00;5010957;28;1776;-59
2022/10/13 09:58:46;;;;;;;;;;;;;;;18.09;74.95;100713.53;5009788;28;1777;-58
2022/10/13 10:01:18;;;;;;;;;;;;;;;18.08;74.14;100720.22;5014549;28;2573;-58
2022/10/13 10:03:44;;;;;;;;;;;;;;;18.07;74.35;100721.34;5020380;28;1843;-59
2022/10/13 10:06:11;;;;;;;;;;;;;;;18.06;75.03;100726.09;5011033;28;2089;-56
2022/10/13 10:08:50;;;;;;;;;;;;;;;18.07;74.50;100718.59;5021042;28;1649;-58
2022/10/13 10:11:21;;;;;;;;;;;;;;;18.06;74.17;100708.66;5034966;28;2006;-56
2022/10/13 10:13:46;;;;;;;;;;;;;;;18.03;74.88;100698.25;5024493;28;1581;-56
2022/10/13 10:16:28;;;;;;;;;;;;;;;18.03;75.25;100695.47;5015592;28;2169;-57
2022/10/13 10:19:04;;;;;;;;;;;;;;;18.01;75.57;100694.97;5017917;28;1964;-57
2022/10/13 10:22:02;;;;;;;;;;;;;;;17.99;75.68;100697.25;5021126;28;2262;-57
2022/10/13 10:24:50;;;;;;;;;;;;;;;17.97;74.11;100700.34;5011312;28;1842;-58
2022/10/13 10:27:21;;;;;;;;;;;;;;;17.95;75.11;100704.59;5013184;28;2056;-57
2022/10/13 10:29:49;;;;;;;;;;;;;;;17.93;74.42;100695.78;5020752;28;1880;-59
2022/10/13 10:32:32;;;;;;;;;;;;;;;17.88;75.66;100693.16;5019650;28;1782;-58
2022/10/13 10:35:00;;;;;;;;;;;;;;;17.91;74.14;100681.44;5024427;28;1535;-58
2022/10/13 10:37:29;;;;;;;;;;;;;;;17.94;75.02;100676.06;5015891;28;1636;-58
2022/10/13 10:40:03;;;;;;;;;;;;;;;17.93;73.67;100679.97;5022413;28;1894;-59
2022/10/13 10:42:43;;;;;;;;;;;;;;;17.94;74.35;100678.84;5023312;28;1728;-60
2022/10/13 10:45:20;;;;;;;;;;;;;;;17.94;74.93;100680.78;5022510;28;1793;-58
2022/10/13 10:47:46;;;;;;;;;;;;;;;17.94;74.05;100673.31;5025529;28;1777;-58
2022/10/13 10:50:15;;;;;;;;;;;;;;;17.97;74.96;100671.81;5024040;28;1895;-57
2022/10/13 10:52:51;;;;;;;;;;;;;;;17.59;73.83;100664.13;5023541;28;1630;-58
2022/10/13 10:55:24;;;;;;;;;;;;;;;17.29;72.97;100656.72;5036193;28;850;-60
2022/10/13 10:57:50;;;;;;;;;;;;;;;17.20;74.59;100651.16;5020426;28;1817;-58
2022/10/13 11:00:17;;;;;;;;;;;;;;;17.38;74.08;100647.31;5012259;28;1959;-60
2022/10/13 11:03:01;;;;;;;;;;;;;;;17.52;73.68;100644.41;5024235;28;1814;-59
2022/10/13 11:05:49;;;;;;;;;;;;;;;17.61;73.62;100636.91;5027273;28;1738;-58
2022/10/13 11:08:25;;;;;;;;;;;;;;;17.69;73.57;100636.13;5015386;28;1949;-58
2022/10/13 11:11:10;;;;;;;;;;;;;;;17.73;74.82;100631.59;5012920;28;1816;-57
2022/10/13 11:13:49;;;;;;;;;;;;;;;17.80;74.33;100630.28;5010968;28;1796;-60
2022/10/13 11:16:34;;;;;;;;;;;;;;;17.57;73.28;100619.34;5016793;28;1810;-60
2022/10/13 11:19:07;;;;;;;;;;;;;;;17.64;73.00;100624.41;5014821;28;1628;-58
2022/10/13 11:21:51;;;;;;;;;;;;;;;17.73;72.76;100625.22;5022114;28;1901;-59
2022/10/13 11:24:45;;;;;;;;;;;;;;;17.80;73.11;100616.44;5019399;28;1649;-60
2022/10/13 11:27:13;;;;;;;;;;;;;;;17.89;74.02;100614.47;5002884;28;1954;-60
2022/10/13 11:29:51;;;;;;;;;;;;;;;17.91;72.33;100620.50;5018014;28;1811;-59
2022/10/13 11:32:25;;;;;;;;;;;;;;;18.08;73.75;100621.31;5012881;28;2031;-58
2022/10/13 11:35:05;;;;;;;;;;;;;;;18.18;72.94;100605.50;5014848;28;1927;-58
2022/10/13 11:37:37;;;;;;;;;;;;;;;18.24;73.72;100605.00;5022362;28;1828;-56
2022/10/13 11:40:07;;;;;;;;;;;;;;;18.29;73.14;100612.34;5019261;28;1898;-58
2022/10/13 11:42:41;;;;;;;;;;;;;;;18.32;72.48;100597.78;5010218;28;1910;-57
2022/10/13 11:45:22;;;;;;;;;;;;;;;18.32;73.11;100592.25;5015100;28;2033;-55
2022/10/13 11:47:52;;;;;;;;;;;;;;;18.34;72.62;100589.97;5028490;28;1735;-56
2022/10/13 11:50:27;;;;;;;;;;;;;;;18.35;73.92;100586.06;5024630;28;1788;-57
2022/10/13 11:53:11;;;;;;;;;;;;;;;18.35;72.75;100580.53;5006506;28;1793;-57
2022/10/13 11:55:50;;;;;;;;;;;;;;;18.34;73.11;100576.13;5011282;28;1880;-59
2022/10/13 11:58:20;;;;;;;;;;;;;;;18.33;72.79;100574.50;5011549;28;1650;-57
2022/10/13 12:01:12;;;;;;;;;;;;;;;18.32;73.72;100576.44;5017064;28;1894;-56
2022/10/13 12:03:38;;;;;;;;;;;;;;;18.31;73.16;100577.59;5028132;28;1705;-57
2022/10/13 12:06:20;;;;;;;;;;;;;;;18.30;74.57;100575.94;5008255;28;2056;-58
2022/10/13 12:08:47;;;;;;;;;;;;;;;18.30;73.92;100567.63;5012583;28;1898;-59
2022/10/13 12:11:29;;;;;;;;;;;;;;;18.12;73.53;100566.06;5011420;28;1703;-57
2022/10/13 12:13:55;;;;;;;;;;;;;;;18.13;74.00;100560.19;5011994;28;2094;-56
2022/10/13 12:16:20;;;;;;;;;;;;;;;18.19;73.05;100558.06;5013257;28;1855;-57
2022/10/13 12:18:46;;;;;;;;;;;;;;;18.23;74.42;100547.94;5021864;28;1811;-57
2022/10/13 12:21:16;;;;;;;;;;;;;;;18.25;73.57;100556.75;5024949;28;1886;-56
2022/10/13 12:23:41;;;;;;;;;;;;;;;18.25;74.06;100550.38;5022643;28;1858;-58
2022/10/13 12:26:12;;;;;;;;;;;;;;;18.25;73.07;100553.16;5017437;28;1850;-56
2022/10/13 12:28:51;;;;;;;;;;;;;;;18.23;73.90;100550.72;5009934;28;1832;-56
2022/10/13 12:31:18;;;;;;;;;;;;;;;18.23;74.48;100547.94;5020652;28;2082;-58
2022/10/13 12:33:50;;;;;;;;;;;;;;;18.22;73.76;100546.31;5009732;28;1927;-57
2022/10/13 12:36:34;;;;;;;;;;;;;;;18.22;73.64;100548.25;5019201;28;1804;-59
2022/10/13 12:39:04;;;;;;;;;;;;;;;18.23;73.74;100544.34;5021682;28;2075;-56
2022/10/13 12:41:31;;;;;;;;;;;;;;;18.22;74.53;100546.31;5021126;28;1939;-59
2022/10/13 12:43:56;;;;;;;;;;;;;;;18.10;73.98;100538.69;5010571;28;2086;-58
2022/10/13 12:46:42;;;;;;;;;;;;;;;17.97;74.82;100542.47;5020394;28;1835;-58
2022/10/13 12:49:26;;;;;;;;;;;;;;;17.91;73.99;100540.19;5015072;28;1934;-57
2022/10/13 12:52:13;;;;;;;;;;;;;;;17.84;75.26;100535.16;5007440;28;2019;-56
2022/10/13 12:54:45;;;;;;;;;;;;;;;17.82;75.06;100531.91;5028326;28;1567;-57